createdAt,value
2018-07-16T00:00:40.429Z,0.00
2018-07-16T00:02:33.407Z,0.00
2018-07-16T00:03:33.364Z,0.00
2018-07-16T00:05:26.352Z,0.00
2018-07-16T00:06:26.309Z,0.00
2018-07-16T00:08:19.335Z,0.00
2018-07-16T00:09:19.296Z,0.00
2018-07-16T00:11:12.128Z,0.00
2018-07-16T00:12:12.080Z,0.00
2018-07-16T00:14:05.122Z,0.00
2018-07-16T00:15:05.111Z,0.00
2018-07-16T00:16:58.016Z,0.00
2018-07-16T00:17:57.952Z,0.00
2018-07-16T00:19:50.924Z,0.00
2018-07-16T00:20:50.904Z,0.00
2018-07-16T00:22:43.885Z,0.00
2018-07-16T00:23:43.844Z,0.00
2018-07-16T00:25:36.991Z,0.00
2018-07-16T00:26:36.940Z,0.00
2018-07-16T00:28:29.939Z,0.00
2018-07-16T00:29:29.876Z,0.00
2018-07-16T00:31:22.856Z,0.00
2018-07-16T00:32:22.821Z,0.00
2018-07-16T00:34:15.905Z,0.00
2018-07-16T00:35:15.860Z,0.00
2018-07-16T00:37:08.840Z,0.00
2018-07-16T00:38:08.798Z,0.00
2018-07-16T00:40:01.652Z,0.00
2018-07-16T00:41:01.605Z,0.00
2018-07-16T00:42:54.450Z,0.00
2018-07-16T00:43:54.406Z,0.00
2018-07-16T00:45:47.381Z,0.00
2018-07-16T00:46:47.197Z,0.00
2018-07-16T00:48:40.178Z,0.00
2018-07-16T00:49:40.141Z,0.00
2018-07-16T00:51:33.122Z,0.00
2018-07-16T00:52:33.091Z,0.00
2018-07-16T00:54:26.005Z,0.00
2018-07-16T00:55:25.952Z,0.00
2018-07-16T00:57:18.925Z,0.00
2018-07-16T00:58:18.895Z,0.00
2018-07-16T01:00:11.886Z,0.00
2018-07-16T01:01:11.841Z,0.00
2018-07-16T01:03:04.673Z,0.00
2018-07-16T01:04:04.621Z,0.00
2018-07-16T01:05:57.454Z,0.00
2018-07-16T01:06:57.427Z,0.00
2018-07-16T01:08:50.428Z,0.00
2018-07-16T01:09:50.372Z,0.00
2018-07-16T01:11:43.353Z,0.00
2018-07-16T01:12:43.318Z,0.00
2018-07-16T01:14:36.513Z,0.00
2018-07-16T01:15:36.419Z,0.00
2018-07-16T01:17:29.403Z,0.00
2018-07-16T01:18:29.376Z,0.00
2018-07-16T01:20:22.805Z,0.00
2018-07-16T01:21:22.666Z,0.00
2018-07-16T01:23:15.466Z,0.00
2018-07-16T01:24:15.427Z,0.00
2018-07-16T01:26:08.417Z,0.00
2018-07-16T01:27:08.376Z,0.00
2018-07-16T01:29:01.602Z,0.00
2018-07-16T01:30:01.471Z,0.00
2018-07-16T01:31:54.466Z,0.00
2018-07-16T01:32:54.426Z,0.00
2018-07-16T01:34:47.407Z,0.00
2018-07-16T01:35:47.358Z,0.00
2018-07-16T01:37:40.487Z,0.00
2018-07-16T01:38:40.451Z,0.00
2018-07-16T01:40:33.441Z,0.00
2018-07-16T01:41:33.395Z,0.00
2018-07-16T01:43:26.208Z,0.00
2018-07-16T01:44:26.171Z,0.00
2018-07-16T01:46:19.402Z,0.00
2018-07-16T01:47:19.278Z,0.00
2018-07-16T01:49:12.252Z,0.00
2018-07-16T01:50:12.233Z,0.00
2018-07-16T01:52:05.226Z,0.00
2018-07-16T01:53:05.172Z,0.00
2018-07-16T01:54:58.048Z,0.00
2018-07-16T01:55:57.984Z,0.00
2018-07-16T01:57:50.971Z,0.00
2018-07-16T01:58:50.929Z,0.00
2018-07-16T02:00:43.758Z,0.00
2018-07-16T02:01:43.703Z,0.00
2018-07-16T02:03:36.678Z,0.00
2018-07-16T02:04:36.649Z,0.00
2018-07-16T02:06:29.728Z,0.00
2018-07-16T02:07:29.668Z,0.00
2018-07-16T02:09:22.503Z,0.00
2018-07-16T02:10:22.473Z,0.00
2018-07-16T02:12:15.315Z,0.00
2018-07-16T02:13:15.259Z,0.00
2018-07-16T02:15:08.294Z,0.00
2018-07-16T02:16:08.261Z,0.00
2018-07-16T02:18:01.275Z,0.00
2018-07-16T02:19:01.201Z,0.00
2018-07-16T02:20:54.175Z,0.00
2018-07-16T02:21:54.217Z,0.00
2018-07-16T02:23:47.419Z,0.00
2018-07-16T02:24:47.240Z,0.00
2018-07-16T02:26:40.213Z,0.00
2018-07-16T02:27:40.170Z,0.00
2018-07-16T02:29:33.169Z,0.00
2018-07-16T02:30:33.112Z,0.00
2018-07-16T02:32:26.275Z,0.00
2018-07-16T02:33:26.189Z,0.00
2018-07-16T02:35:19.180Z,0.00
2018-07-16T02:36:19.129Z,0.00
2018-07-16T02:38:12.123Z,0.00
2018-07-16T02:39:12.080Z,0.00
2018-07-16T02:41:05.140Z,0.00
2018-07-16T02:42:05.071Z,0.00
2018-07-16T02:43:58.036Z,0.00
2018-07-16T02:44:58.009Z,0.00
2018-07-16T02:46:50.996Z,0.00
2018-07-16T02:47:50.949Z,0.00
2018-07-16T02:49:43.986Z,0.00
2018-07-16T02:50:43.932Z,0.00
2018-07-16T02:52:36.897Z,0.00
2018-07-16T02:53:36.862Z,0.00
2018-07-16T02:55:29.856Z,0.00
2018-07-16T02:56:29.874Z,0.00
2018-07-16T02:58:22.611Z,0.00
2018-07-16T02:59:22.571Z,0.00
2018-07-16T03:01:15.420Z,0.00
2018-07-16T03:02:15.370Z,0.00
2018-07-16T03:04:08.330Z,4.00
2018-07-16T03:05:08.287Z,4.00
2018-07-16T03:07:01.276Z,0.00
2018-07-16T03:08:01.227Z,0.00
2018-07-16T03:09:54.554Z,4.00
2018-07-16T03:10:54.498Z,4.00
2018-07-16T03:12:47.481Z,8.00
2018-07-16T03:13:47.435Z,4.00
2018-07-16T03:15:40.370Z,8.00
2018-07-16T03:16:40.319Z,12.00
2018-07-16T03:18:33.288Z,12.00
2018-07-16T03:19:33.261Z,12.00
2018-07-16T03:21:26.256Z,16.00
2018-07-16T03:22:26.199Z,16.00
2018-07-16T03:24:19.462Z,20.00
2018-07-16T03:25:19.424Z,24.00
2018-07-16T03:27:12.428Z,28.00
2018-07-16T03:28:12.450Z,32.00
2018-07-16T03:30:05.606Z,40.00
2018-07-16T03:31:05.438Z,44.00
2018-07-16T03:32:58.247Z,52.00
2018-07-16T03:33:58.218Z,60.00
2018-07-16T03:35:51.205Z,72.00
2018-07-16T03:36:51.159Z,76.00
2018-07-16T03:38:44.159Z,84.00
2018-07-16T03:39:44.102Z,96.00
2018-07-16T03:41:36.958Z,108.00
2018-07-16T03:42:36.908Z,112.00
2018-07-16T03:44:29.872Z,128.00
2018-07-16T03:45:29.843Z,136.00
2018-07-16T03:47:22.819Z,156.00
2018-07-16T03:48:22.769Z,164.00
2018-07-16T03:50:15.909Z,180.00
2018-07-16T03:51:15.848Z,188.00
2018-07-16T03:53:08.887Z,208.00
2018-07-16T03:54:08.824Z,220.00
2018-07-16T03:56:01.825Z,236.00
2018-07-16T03:57:01.776Z,248.00
2018-07-16T03:58:54.818Z,268.00
2018-07-16T03:59:54.718Z,276.00
2018-07-16T04:01:47.711Z,296.00
2018-07-16T04:02:47.673Z,308.00
2018-07-16T04:04:40.659Z,328.00
2018-07-16T04:05:40.616Z,336.00
2018-07-16T04:07:33.440Z,360.00
2018-07-16T04:08:33.390Z,368.00
2018-07-16T04:10:26.384Z,388.00
2018-07-16T04:11:26.344Z,396.00
2018-07-16T04:13:19.385Z,416.00
2018-07-16T04:14:19.345Z,424.00
2018-07-16T04:16:12.508Z,440.00
2018-07-16T04:17:12.423Z,452.00
2018-07-16T04:19:05.430Z,468.00
2018-07-16T04:20:05.365Z,476.00
2018-07-16T04:21:58.193Z,492.00
2018-07-16T04:22:58.210Z,504.00
2018-07-16T04:24:51.308Z,520.00
2018-07-16T04:25:51.235Z,528.00
2018-07-16T04:27:44.201Z,544.00
2018-07-16T04:28:44.171Z,548.00
2018-07-16T04:30:37.167Z,564.00
2018-07-16T04:31:37.107Z,572.00
2018-07-16T04:33:29.915Z,588.00
2018-07-16T04:34:29.876Z,596.00
2018-07-16T04:36:22.890Z,612.00
2018-07-16T04:37:22.820Z,616.00
2018-07-16T04:39:15.814Z,628.00
2018-07-16T04:40:15.769Z,636.00
2018-07-16T04:42:08.739Z,648.00
2018-07-16T04:43:08.705Z,656.00
2018-07-16T04:45:01.557Z,668.00
2018-07-16T04:46:01.503Z,676.00
2018-07-16T04:47:54.479Z,688.00
2018-07-16T04:48:54.439Z,696.00
2018-07-16T04:50:47.442Z,704.00
2018-07-16T04:51:47.433Z,712.00
2018-07-16T04:53:40.571Z,724.00
2018-07-16T04:54:40.491Z,728.00
2018-07-16T04:56:33.471Z,744.00
2018-07-16T04:57:33.427Z,752.00
2018-07-16T04:59:26.395Z,760.00
2018-07-16T05:00:26.375Z,764.00
2018-07-16T05:02:19.201Z,776.00
2018-07-16T05:03:19.231Z,780.00
2018-07-16T05:05:12.137Z,792.00
2018-07-16T05:06:12.084Z,796.00
2018-07-16T05:08:05.090Z,804.00
2018-07-16T05:09:05.035Z,812.00
2018-07-16T05:10:58.191Z,820.00
2018-07-16T05:11:58.127Z,824.00
2018-07-16T05:13:51.107Z,832.00
2018-07-16T05:14:51.078Z,836.00
2018-07-16T05:16:43.902Z,848.00
2018-07-16T05:17:43.950Z,852.00
2018-07-16T05:19:37.116Z,856.00
2018-07-16T05:20:37.030Z,864.00
2018-07-16T05:22:29.991Z,872.00
2018-07-16T05:23:29.947Z,880.00
2018-07-16T05:25:22.948Z,884.00
2018-07-16T05:26:22.935Z,892.00
2018-07-16T05:28:15.740Z,900.00
2018-07-16T05:29:15.678Z,904.00
2018-07-16T05:31:08.678Z,912.00
2018-07-16T05:32:08.794Z,916.00
2018-07-16T05:34:01.598Z,924.00
2018-07-16T05:35:01.572Z,928.00
2018-07-16T05:36:54.701Z,936.00
2018-07-16T05:37:54.636Z,940.00
2018-07-16T05:39:47.616Z,948.00
2018-07-16T05:40:47.580Z,952.00
2018-07-16T05:42:40.564Z,964.00
2018-07-16T05:43:40.551Z,972.00
2018-07-16T05:45:33.688Z,976.00
2018-07-16T05:46:33.614Z,988.00
2018-07-16T05:48:26.606Z,996.00
2018-07-16T05:49:26.548Z,1000.00
2018-07-16T05:51:19.363Z,1012.00
2018-07-16T05:52:19.332Z,1020.00
2018-07-16T05:54:12.568Z,1032.00
2018-07-16T05:55:12.420Z,1040.00
2018-07-16T05:57:05.393Z,1052.00
2018-07-16T05:58:05.376Z,1060.00
2018-07-16T05:59:58.370Z,1072.00
2018-07-16T06:00:58.309Z,1084.00
2018-07-16T06:02:51.159Z,1100.00
2018-07-16T06:03:51.087Z,1108.00
2018-07-16T06:05:44.087Z,1132.00
2018-07-16T06:06:44.040Z,1140.00
2018-07-16T06:08:37.075Z,1168.00
2018-07-16T06:09:36.997Z,1180.00
2018-07-16T06:11:30.128Z,1196.00
2018-07-16T06:12:30.064Z,1208.00
2018-07-16T06:14:23.074Z,1224.00
2018-07-16T06:15:23.001Z,1232.00
2018-07-16T06:17:15.987Z,1240.00
2018-07-16T06:18:15.958Z,1244.00
2018-07-16T06:20:09.108Z,1244.00
2018-07-16T06:21:09.065Z,1244.00
2018-07-16T06:23:02.053Z,1248.00
2018-07-16T06:24:02.039Z,1248.00
2018-07-16T06:25:54.994Z,1252.00
2018-07-16T06:26:54.948Z,1252.00
2018-07-16T06:28:47.775Z,1256.00
2018-07-16T06:29:47.721Z,1260.00
2018-07-16T06:31:40.737Z,1260.00
2018-07-16T06:32:40.706Z,1264.00
2018-07-16T06:34:33.891Z,1264.00
2018-07-16T06:35:33.840Z,1268.00
2018-07-16T06:37:26.687Z,1268.00
2018-07-16T06:38:26.627Z,1272.00
2018-07-16T06:40:19.861Z,1276.00
2018-07-16T06:41:19.980Z,1272.00
2018-07-16T06:43:12.581Z,1272.00
2018-07-16T06:44:12.560Z,1276.00
2018-07-16T06:46:05.961Z,1276.00
2018-07-16T06:47:05.646Z,1280.00
2018-07-16T06:48:58.625Z,1284.00
2018-07-16T06:49:58.581Z,1280.00
2018-07-16T06:51:51.576Z,1288.00
2018-07-16T06:52:51.524Z,1292.00
2018-07-16T06:54:44.596Z,1300.00
2018-07-16T06:55:44.542Z,1304.00
2018-07-16T06:57:37.577Z,1312.00
2018-07-16T06:58:37.535Z,1320.00
2018-07-16T07:00:30.921Z,1340.00
2018-07-16T07:01:30.618Z,1348.00
2018-07-16T07:03:23.612Z,1360.00
2018-07-16T07:04:23.569Z,1364.00
2018-07-16T07:06:16.548Z,1376.00
2018-07-16T07:07:16.518Z,1380.00
2018-07-16T07:09:09.477Z,1392.00
2018-07-16T07:10:09.423Z,1400.00
2018-07-16T07:12:02.422Z,1408.00
2018-07-16T07:13:02.386Z,1412.00
2018-07-16T07:14:55.386Z,1416.00
2018-07-16T07:15:55.336Z,1420.00
2018-07-16T07:17:48.487Z,1428.00
2018-07-16T07:18:48.413Z,1436.00
2018-07-16T07:20:41.411Z,1444.00
2018-07-16T07:21:41.372Z,1448.00
2018-07-16T07:23:34.368Z,1460.00
2018-07-16T07:24:34.315Z,1464.00
2018-07-16T07:26:27.367Z,1476.00
2018-07-16T07:27:27.316Z,1480.00
2018-07-16T07:29:20.317Z,1492.00
2018-07-16T07:30:20.275Z,1492.00
2018-07-16T07:32:13.097Z,1512.00
2018-07-16T07:33:13.052Z,1524.00
2018-07-16T07:35:06.354Z,1556.00
2018-07-16T07:36:06.183Z,1572.00
2018-07-16T07:37:58.980Z,1584.00
2018-07-16T07:38:58.955Z,1592.00
2018-07-16T07:40:51.935Z,1604.00
2018-07-16T07:41:51.903Z,1608.00
2018-07-16T07:43:45.233Z,1616.00
2018-07-16T07:44:45.189Z,1624.00
2018-07-16T07:46:38.173Z,1628.00
2018-07-16T07:47:38.207Z,1632.00
2018-07-16T07:49:31.320Z,1636.00
2018-07-16T07:50:31.282Z,1640.00
2018-07-16T07:52:24.267Z,1656.00
2018-07-16T07:53:24.229Z,1664.00
2018-07-16T07:55:17.985Z,1672.00
2018-07-16T07:56:17.284Z,1676.00
2018-07-16T07:58:10.276Z,1684.00
2018-07-16T07:59:10.251Z,1688.00
2018-07-16T08:01:03.261Z,1696.00
2018-07-16T08:02:03.243Z,1704.00
2018-07-16T08:03:56.384Z,1712.00
2018-07-16T08:04:56.327Z,1716.00
2018-07-16T08:06:49.288Z,1724.00
2018-07-16T08:07:49.236Z,1728.00
2018-07-16T08:09:42.262Z,1736.00
2018-07-16T08:10:42.211Z,1736.00
2018-07-16T08:12:35.037Z,1748.00
2018-07-16T08:13:35.081Z,1748.00
2018-07-16T08:15:28.015Z,1752.00
2018-07-16T08:16:27.974Z,1756.00
2018-07-16T08:18:20.985Z,1768.00
2018-07-16T08:19:20.940Z,1772.00
2018-07-16T08:21:13.800Z,1784.00
2018-07-16T08:22:13.755Z,1792.00
2018-07-16T08:24:06.759Z,1808.00
2018-07-16T08:25:06.700Z,1812.00
2018-07-16T08:26:59.740Z,1820.00
2018-07-16T08:27:59.764Z,1828.00
2018-07-16T08:29:52.929Z,1840.00
2018-07-16T08:30:52.804Z,1844.00
2018-07-16T08:32:45.798Z,1852.00
2018-07-16T08:33:45.903Z,1860.00
2018-07-16T08:35:38.785Z,1868.00
2018-07-16T08:36:38.729Z,1872.00
2018-07-16T08:38:31.571Z,1888.00
2018-07-16T08:39:31.515Z,1892.00
2018-07-16T08:41:24.524Z,1900.00
2018-07-16T08:42:24.486Z,1908.00
2018-07-16T08:44:17.515Z,1924.00
2018-07-16T08:45:17.469Z,1928.00
2018-07-16T08:47:10.691Z,1936.00
2018-07-16T08:48:10.575Z,1944.00
2018-07-16T08:50:03.569Z,1956.00
2018-07-16T08:51:03.537Z,1952.00
2018-07-16T08:52:56.875Z,1964.00
2018-07-16T08:53:56.818Z,1968.00
2018-07-16T08:55:49.810Z,1984.00
2018-07-16T08:56:49.770Z,1988.00
2018-07-16T08:58:42.793Z,2004.00
2018-07-16T08:59:42.730Z,2032.00
2018-07-16T09:01:35.586Z,2036.00
2018-07-16T09:02:35.544Z,2048.00
2018-07-16T09:04:28.530Z,2068.00
2018-07-16T09:05:28.504Z,2076.00
2018-07-16T09:07:21.516Z,2100.00
2018-07-16T09:08:21.463Z,2104.00
2018-07-16T09:10:14.290Z,2120.00
2018-07-16T09:11:14.312Z,2132.00
2018-07-16T09:13:07.329Z,2152.00
2018-07-16T09:14:07.234Z,2160.00
2018-07-16T09:16:00.230Z,2180.00
2018-07-16T09:17:00.294Z,2184.00
2018-07-16T09:18:53.456Z,2196.00
2018-07-16T09:19:53.309Z,2200.00
2018-07-16T09:21:46.155Z,2216.00
2018-07-16T09:22:46.107Z,2232.00
2018-07-16T09:24:39.111Z,2248.00
2018-07-16T09:25:39.166Z,2264.00
2018-07-16T09:27:32.236Z,2276.00
2018-07-16T09:28:32.191Z,2288.00
2018-07-16T09:30:25.222Z,2312.00
2018-07-16T09:31:25.160Z,2312.00
2018-07-16T09:33:18.161Z,2328.00
2018-07-16T09:34:18.131Z,2336.00
2018-07-16T09:36:11.232Z,2352.00
2018-07-16T09:37:11.186Z,2368.00
2018-07-16T09:39:05.189Z,2396.00
2018-07-16T09:40:05.140Z,2396.00
2018-07-16T09:41:58.589Z,2416.00
2018-07-16T09:42:58.242Z,2424.00
2018-07-16T09:44:51.253Z,2456.00
2018-07-16T09:45:51.207Z,2480.00
2018-07-16T09:47:44.049Z,2524.00
2018-07-16T09:48:44.015Z,2548.00
2018-07-16T09:50:37.223Z,2580.00
2018-07-16T09:51:37.132Z,2600.00
2018-07-16T09:53:29.969Z,2648.00
2018-07-16T09:54:29.939Z,2676.00
2018-07-16T09:56:22.911Z,2720.00
2018-07-16T09:57:22.884Z,2740.00
2018-07-16T09:59:16.059Z,2780.00
2018-07-16T10:00:16.003Z,2880.00
2018-07-16T10:02:09.020Z,6448.00
2018-07-16T10:03:08.956Z,24352.00
2018-07-16T10:05:01.980Z,38304.00
2018-07-16T10:06:01.933Z,36416.00
2018-07-16T10:07:54.948Z,32512.00
2018-07-16T10:08:55.030Z,30880.00
2018-07-16T10:10:47.960Z,30560.00
2018-07-16T10:11:47.918Z,30912.00
2018-07-16T10:13:41.275Z,30144.00
2018-07-16T10:14:41.225Z,28960.00
2018-07-16T10:16:34.242Z,27840.00
2018-07-16T10:17:34.207Z,27264.00
2018-07-16T10:19:27.423Z,25792.00
2018-07-16T10:20:27.423Z,25152.00
2018-07-16T10:22:20.424Z,24096.00
2018-07-16T10:23:20.449Z,23616.00
2018-07-16T10:25:13.589Z,23008.00
2018-07-16T10:26:13.504Z,22464.00
2018-07-16T10:28:06.640Z,21472.00
2018-07-16T10:29:06.626Z,21120.00
2018-07-16T10:30:59.803Z,20672.00
2018-07-16T10:31:59.768Z,20480.00
2018-07-16T10:33:53.159Z,20064.00
2018-07-16T10:34:53.094Z,19744.00
2018-07-16T10:36:46.120Z,19904.00
2018-07-16T10:37:46.105Z,20032.00
2018-07-16T10:39:39.124Z,19520.00
2018-07-16T10:40:39.094Z,19008.00
2018-07-16T10:42:32.210Z,18368.00
2018-07-16T10:43:32.206Z,18144.00
2018-07-16T10:45:25.226Z,17920.00
2018-07-16T10:46:25.200Z,18048.00
2018-07-16T10:48:18.214Z,17600.00
2018-07-16T10:49:18.195Z,17408.00
2018-07-16T10:51:11.203Z,17152.00
2018-07-16T10:52:11.192Z,16896.00
2018-07-16T10:54:04.199Z,17088.00
2018-07-16T10:55:04.225Z,17984.00
2018-07-16T10:56:57.329Z,17760.00
2018-07-16T10:57:57.314Z,17280.00
2018-07-16T10:59:50.345Z,17344.00
2018-07-16T11:00:50.315Z,17216.00
2018-07-16T11:02:43.156Z,17248.00
2018-07-16T11:03:43.150Z,16800.00
2018-07-16T11:05:36.175Z,16224.00
2018-07-16T11:06:36.066Z,16160.00
2018-07-16T11:08:29.071Z,15704.00
2018-07-16T11:09:29.060Z,15628.00
2018-07-16T11:11:21.939Z,15580.00
2018-07-16T11:12:21.932Z,15704.00
2018-07-16T11:14:15.063Z,15620.00
2018-07-16T11:15:15.031Z,15640.00
2018-07-16T11:17:08.063Z,15556.00
2018-07-16T11:18:08.027Z,15500.00
2018-07-16T11:20:01.210Z,15256.00
2018-07-16T11:21:01.257Z,14696.00
2018-07-16T11:22:54.206Z,14172.00
2018-07-16T11:23:54.196Z,14948.00
2018-07-16T11:25:48.218Z,15236.00
2018-07-16T11:26:48.181Z,14684.00
2018-07-16T11:28:41.201Z,14364.00
2018-07-16T11:29:41.185Z,14152.00
2018-07-16T11:31:34.212Z,14032.00
2018-07-16T11:32:34.184Z,14376.00
2018-07-16T11:34:27.317Z,14632.00
2018-07-16T11:35:27.324Z,14624.00
2018-07-16T11:37:20.325Z,14044.00
2018-07-16T11:38:20.276Z,14444.00
2018-07-16T11:40:13.303Z,14452.00
2018-07-16T11:41:13.292Z,14300.00
2018-07-16T11:43:06.347Z,14196.00
2018-07-16T11:44:06.314Z,14188.00
2018-07-16T11:45:59.421Z,14280.00
2018-07-16T11:46:59.324Z,14336.00
2018-07-16T11:48:52.184Z,14224.00
2018-07-16T11:49:52.171Z,14196.00
2018-07-16T11:51:45.033Z,14288.00
2018-07-16T11:52:45.008Z,14292.00
2018-07-16T11:54:38.032Z,13876.00
2018-07-16T11:55:37.997Z,14380.00
2018-07-16T11:57:31.028Z,14328.00
2018-07-16T11:58:30.987Z,14360.00
2018-07-16T12:00:23.852Z,13896.00
2018-07-16T12:01:23.839Z,13740.00
2018-07-16T12:03:16.852Z,13236.00
2018-07-16T12:04:16.820Z,11596.00
2018-07-16T12:06:09.857Z,8860.00
2018-07-16T12:07:09.814Z,13348.00
2018-07-16T12:09:02.843Z,13472.00
2018-07-16T12:10:02.803Z,13772.00
2018-07-16T12:11:55.812Z,13636.00
2018-07-16T12:12:55.801Z,13268.00
2018-07-16T12:14:48.949Z,13324.00
2018-07-16T12:15:48.912Z,13268.00
2018-07-16T12:17:41.914Z,13400.00
2018-07-16T12:18:41.898Z,13460.00
2018-07-16T12:20:34.974Z,13568.00
2018-07-16T12:21:34.898Z,13464.00
2018-07-16T12:23:27.927Z,13364.00
2018-07-16T12:24:27.909Z,13552.00
2018-07-16T12:26:20.749Z,13564.00
2018-07-16T12:27:20.722Z,13608.00
2018-07-16T12:29:14.115Z,13256.00
2018-07-16T12:30:14.014Z,13108.00
2018-07-16T12:32:07.021Z,12936.00
2018-07-16T12:33:07.006Z,13096.00
2018-07-16T12:35:00.030Z,12904.00
2018-07-16T12:36:00.002Z,12820.00
2018-07-16T12:37:53.030Z,12656.00
2018-07-16T12:38:53.014Z,12700.00
2018-07-16T12:40:46.054Z,12592.00
2018-07-16T12:41:46.037Z,12312.00
2018-07-16T12:43:39.171Z,12320.00
2018-07-16T12:44:39.133Z,12384.00
2018-07-16T12:46:32.145Z,12504.00
2018-07-16T12:47:32.115Z,12616.00
2018-07-16T12:49:25.388Z,12804.00
2018-07-16T12:50:25.261Z,12796.00
2018-07-16T12:52:18.289Z,12548.00
2018-07-16T12:53:18.255Z,12272.00
2018-07-16T12:55:11.314Z,11900.00
2018-07-16T12:56:11.292Z,11664.00
2018-07-16T12:58:04.315Z,11464.00
2018-07-16T12:59:04.279Z,11480.00
2018-07-16T13:00:57.285Z,11336.00
2018-07-16T13:01:57.276Z,11256.00
2018-07-16T13:03:50.455Z,11048.00
2018-07-16T13:04:50.417Z,10868.00
2018-07-16T13:06:43.443Z,10952.00
2018-07-16T13:07:43.400Z,10824.00
2018-07-16T13:09:36.464Z,10672.00
2018-07-16T13:10:36.395Z,2992.00
2018-07-16T13:12:30.340Z,3372.00
2018-07-16T13:13:30.253Z,10880.00
2018-07-16T13:15:23.264Z,11132.00
2018-07-16T13:16:23.236Z,11232.00
2018-07-16T13:18:16.265Z,11404.00
2018-07-16T13:19:16.222Z,11200.00
2018-07-16T13:21:09.265Z,10784.00
2018-07-16T13:22:09.229Z,10748.00
2018-07-16T13:24:02.294Z,10560.00
2018-07-16T13:25:02.245Z,10448.00
2018-07-16T13:26:55.446Z,10380.00
2018-07-16T13:27:55.362Z,10292.00
2018-07-16T13:29:48.372Z,10340.00
2018-07-16T13:30:48.350Z,10332.00
2018-07-16T13:32:41.500Z,10392.00
2018-07-16T13:33:41.454Z,10416.00
2018-07-16T13:35:35.465Z,10540.00
2018-07-16T13:36:35.439Z,10456.00
2018-07-16T13:38:28.825Z,10248.00
2018-07-16T13:39:28.777Z,10192.00
2018-07-16T13:41:21.607Z,10108.00
2018-07-16T13:42:21.586Z,10128.00
2018-07-16T13:44:14.626Z,10000.00
2018-07-16T13:45:14.585Z,9944.00
2018-07-16T13:47:07.682Z,9844.00
2018-07-16T13:48:07.538Z,9756.00
2018-07-16T13:50:00.594Z,9668.00
2018-07-16T13:51:00.560Z,9492.00
2018-07-16T13:52:53.601Z,9228.00
2018-07-16T13:53:53.567Z,9192.00
2018-07-16T13:55:46.505Z,9224.00
2018-07-16T13:56:46.409Z,9192.00
2018-07-16T13:58:39.407Z,9220.00
2018-07-16T13:59:39.385Z,9156.00
2018-07-16T14:01:32.421Z,9180.00
2018-07-16T14:02:32.397Z,9156.00
2018-07-16T14:04:25.285Z,9192.00
2018-07-16T14:05:25.240Z,9124.00
2018-07-16T14:07:18.271Z,9052.00
2018-07-16T14:08:18.226Z,8872.00
2018-07-16T14:10:11.269Z,8696.00
2018-07-16T14:11:11.216Z,8396.00
2018-07-16T14:13:04.306Z,8612.00
2018-07-16T14:14:04.277Z,8604.00
2018-07-16T14:15:57.316Z,8592.00
2018-07-16T14:16:57.358Z,8588.00
2018-07-16T14:18:50.514Z,8572.00
2018-07-16T14:19:50.421Z,8568.00
2018-07-16T14:21:43.483Z,8308.00
2018-07-16T14:22:43.430Z,7620.00
2018-07-16T14:24:36.562Z,8044.00
2018-07-16T14:25:36.536Z,7784.00
2018-07-16T14:27:29.584Z,7700.00
2018-07-16T14:28:29.527Z,8344.00
2018-07-16T14:30:22.587Z,8472.00
2018-07-16T14:31:22.548Z,8508.00
2018-07-16T14:33:15.653Z,8460.00
2018-07-16T14:34:15.613Z,8484.00
2018-07-16T14:36:08.642Z,8400.00
2018-07-16T14:37:08.618Z,8396.00
2018-07-16T14:39:01.668Z,8256.00
2018-07-16T14:40:01.688Z,8172.00
2018-07-16T14:41:54.533Z,8088.00
2018-07-16T14:42:54.469Z,7888.00
2018-07-16T14:44:47.555Z,6884.00
2018-07-16T14:45:47.503Z,7384.00
2018-07-16T14:47:40.706Z,8152.00
2018-07-16T14:48:40.602Z,8172.00
2018-07-16T14:50:33.727Z,7556.00
2018-07-16T14:51:33.603Z,7300.00
2018-07-16T14:53:26.885Z,7880.00
2018-07-16T14:54:26.750Z,7184.00
2018-07-16T14:56:20.110Z,7316.00
2018-07-16T14:57:20.077Z,5392.00
2018-07-16T14:59:12.930Z,6096.00
2018-07-16T15:00:12.907Z,6892.00
2018-07-16T15:02:05.975Z,7220.00
2018-07-16T15:03:05.935Z,7984.00
2018-07-16T15:04:58.803Z,8284.00
2018-07-16T15:05:58.780Z,8020.00
2018-07-16T15:07:51.696Z,8296.00
2018-07-16T15:08:51.624Z,8860.00
2018-07-16T15:10:44.639Z,8756.00
2018-07-16T15:11:44.622Z,7624.00
2018-07-16T15:13:37.650Z,4576.00
2018-07-16T15:14:37.685Z,3608.00
2018-07-16T15:16:30.755Z,3372.00
2018-07-16T15:17:30.735Z,3236.00
2018-07-16T15:19:23.806Z,3212.00
2018-07-16T15:20:23.989Z,3528.00
2018-07-16T15:22:17.071Z,3636.00
2018-07-16T15:23:16.933Z,3884.00
2018-07-16T15:25:09.984Z,6348.00
2018-07-16T15:26:09.951Z,7220.00
2018-07-16T15:28:02.982Z,9524.00
2018-07-16T15:29:02.940Z,10568.00
2018-07-16T15:30:55.907Z,10272.00
2018-07-16T15:31:55.757Z,10580.00
2018-07-16T15:33:48.780Z,11008.00
2018-07-16T15:34:48.744Z,10480.00
2018-07-16T15:36:41.769Z,6928.00
2018-07-16T15:37:41.744Z,9132.00
2018-07-16T15:39:34.624Z,9288.00
2018-07-16T15:40:34.570Z,10536.00
2018-07-16T15:42:27.411Z,8936.00
2018-07-16T15:43:27.391Z,7440.00
2018-07-16T15:45:20.438Z,7620.00
2018-07-16T15:46:20.378Z,7300.00
2018-07-16T15:48:13.282Z,6464.00
2018-07-16T15:49:13.228Z,6388.00
2018-07-16T15:51:06.291Z,9940.00
2018-07-16T15:52:06.241Z,4948.00
2018-07-16T15:53:59.245Z,6692.00
2018-07-16T15:54:59.219Z,8148.00
2018-07-16T15:56:52.406Z,5908.00
2018-07-16T15:57:52.354Z,5472.00
2018-07-16T15:59:45.203Z,9740.00
2018-07-16T16:00:45.159Z,8168.00
2018-07-16T16:02:38.170Z,7996.00
2018-07-16T16:03:38.170Z,6632.00
2018-07-16T16:05:30.989Z,5792.00
2018-07-16T16:06:30.964Z,5472.00
2018-07-16T16:08:23.953Z,5444.00
2018-07-16T16:09:23.964Z,5964.00
2018-07-16T16:11:16.800Z,7348.00
2018-07-16T16:12:16.791Z,6276.00
2018-07-16T16:14:09.767Z,6604.00
2018-07-16T16:15:09.750Z,6492.00
2018-07-16T16:17:02.839Z,7552.00
2018-07-16T16:18:02.794Z,7816.00
2018-07-16T16:19:55.864Z,8256.00
2018-07-16T16:20:55.784Z,8396.00
2018-07-16T16:22:48.909Z,7360.00
2018-07-16T16:23:48.839Z,7488.00
2018-07-16T16:25:41.850Z,7680.00
2018-07-16T16:26:41.829Z,7920.00
2018-07-16T16:28:34.856Z,8204.00
2018-07-16T16:29:34.821Z,8100.00
2018-07-16T16:31:27.675Z,6816.00
2018-07-16T16:32:27.657Z,7052.00
2018-07-16T16:34:20.665Z,6036.00
2018-07-16T16:35:20.634Z,5412.00
2018-07-16T16:37:13.663Z,8132.00
2018-07-16T16:38:13.626Z,8368.00
2018-07-16T16:40:06.950Z,7408.00
2018-07-16T16:41:06.932Z,8156.00
2018-07-16T16:43:00.033Z,7996.00
2018-07-16T16:43:59.904Z,7876.00
2018-07-16T16:45:52.861Z,7772.00
2018-07-16T16:46:52.816Z,7660.00
2018-07-16T16:48:45.866Z,7692.00
2018-07-16T16:49:45.821Z,7632.00
2018-07-16T16:51:38.825Z,7552.00
2018-07-16T16:52:38.813Z,7404.00
2018-07-16T16:54:31.883Z,7488.00
2018-07-16T16:55:31.869Z,7232.00
2018-07-16T16:57:24.849Z,6684.00
2018-07-16T16:58:24.846Z,6528.00
2018-07-16T17:00:18.042Z,6232.00
2018-07-16T17:01:17.954Z,5880.00
2018-07-16T17:03:11.045Z,5996.00
2018-07-16T17:04:11.027Z,5832.00
2018-07-16T17:06:04.295Z,5612.00
2018-07-16T17:07:04.156Z,5424.00
2018-07-16T17:08:57.252Z,4896.00
2018-07-16T17:09:57.238Z,4996.00
2018-07-16T17:11:50.282Z,4744.00
2018-07-16T17:12:50.209Z,5428.00
2018-07-16T17:14:43.194Z,5404.00
2018-07-16T17:15:43.025Z,5236.00
2018-07-16T17:17:36.042Z,4876.00
2018-07-16T17:18:36.013Z,4920.00
2018-07-16T17:20:29.033Z,4464.00
2018-07-16T17:21:29.009Z,5100.00
2018-07-16T17:23:21.975Z,4880.00
2018-07-16T17:24:21.803Z,4752.00
2018-07-16T17:26:14.831Z,4840.00
2018-07-16T17:27:14.788Z,4824.00
2018-07-16T17:29:07.789Z,4788.00
2018-07-16T17:30:07.769Z,4648.00
2018-07-16T17:32:00.618Z,4396.00
2018-07-16T17:33:00.569Z,4452.00
2018-07-16T17:34:53.571Z,4208.00
2018-07-16T17:35:53.549Z,4064.00
2018-07-16T17:37:46.565Z,4192.00
2018-07-16T17:38:46.534Z,4216.00
2018-07-16T17:40:39.878Z,4132.00
2018-07-16T17:41:39.848Z,4104.00
2018-07-16T17:43:32.848Z,4028.00